sensor_id;sensor_type;location;lat;lon;timestamp;pressure;altitude;pressure_sealevel;temperature;humidity
17060;BME280;8646;49.716;9.266;2023-02-25T00:01:28;99105.50;;;6.46;82.63
17060;BME280;8646;49.716;9.266;2023-02-25T00:04:33;99100.41;;;6.40;83.43
17060;BME280;8646;49.716;9.266;2023-02-25T00:07:35;99098.50;;;6.42;83.18
17060;BME280;8646;49.716;9.266;2023-02-25T00:10:38;99118.25;;;6.41;83.29
17060;BME280;8646;49.716;9.266;2023-02-25T00:13:42;99118.00;;;6.47;83.25
17060;BME280;8646;49.716;9.266;2023-02-25T00:16:47;99118.13;;;6.44;83.32
17060;BME280;8646;49.716;9.266;2023-02-25T00:19:50;99117.38;;;6.41;82.98
17060;BME280;8646;49.716;9.266;2023-02-25T00:22:57;99131.84;;;6.38;83.51
17060;BME280;8646;49.716;9.266;2023-02-25T00:26:02;99144.41;;;6.38;83.47
17060;BME280;8646;49.716;9.266;2023-02-25T00:29:07;99132.66;;;6.40;82.95
17060;BME280;8646;49.716;9.266;2023-02-25T00:32:14;99139.75;;;6.41;81.62
17060;BME280;8646;49.716;9.266;2023-02-25T00:35:21;99135.59;;;6.34;81.53
17060;BME280;8646;49.716;9.266;2023-02-25T00:38:23;99133.50;;;6.41;81.71
17060;BME280;8646;49.716;9.266;2023-02-25T00:41:28;99140.72;;;6.40;81.53
17060;BME280;8646;49.716;9.266;2023-02-25T00:44:37;99154.41;;;6.34;81.28
17060;BME280;8646;49.716;9.266;2023-02-25T00:47:41;99148.50;;;6.46;80.12
17060;BME280;8646;49.716;9.266;2023-02-25T00:50:44;99148.50;;;6.46;78.89
17060;BME280;8646;49.716;9.266;2023-02-25T00:53:47;99151.16;;;6.26;80.24
17060;BME280;8646;49.716;9.266;2023-02-25T00:56:53;99150.94;;;6.32;80.12
17060;BME280;8646;49.716;9.266;2023-02-25T00:59:56;99148.09;;;6.35;79.46
17060;BME280;8646;49.716;9.266;2023-02-25T01:03:00;99148.41;;;6.28;79.93
17060;BME280;8646;49.716;9.266;2023-02-25T01:06:03;99159.72;;;6.16;80.49
17060;BME280;8646;49.716;9.266;2023-02-25T01:09:12;99151.72;;;6.14;80.73
17060;BME280;8646;49.716;9.266;2023-02-25T01:12:15;99165.53;;;6.05;81.17
17060;BME280;8646;49.716;9.266;2023-02-25T01:15:18;99160.09;;;6.06;81.24
17060;BME280;8646;49.716;9.266;2023-02-25T01:18:22;99166.16;;;6.11;80.80
17060;BME280;8646;49.716;9.266;2023-02-25T01:21:34;99160.84;;;6.10;80.93
17060;BME280;8646;49.716;9.266;2023-02-25T01:24:37;99161.59;;;6.13;81.29
17060;BME280;8646;49.716;9.266;2023-02-25T01:27:40;99164.44;;;6.09;81.07
17060;BME280;8646;49.716;9.266;2023-02-25T01:30:43;99164.34;;;6.12;81.08
17060;BME280;8646;49.716;9.266;2023-02-25T01:33:49;99158.97;;;6.12;80.28
17060;BME280;8646;49.716;9.266;2023-02-25T01:36:52;99144.06;;;6.05;80.31
17060;BME280;8646;49.716;9.266;2023-02-25T01:39:58;99153.97;;;6.03;79.98
17060;BME280;8646;49.716;9.266;2023-02-25T01:43:01;99154.97;;;6.00;80.26
17060;BME280;8646;49.716;9.266;2023-02-25T01:46:04;99146.13;;;5.98;80.30
17060;BME280;8646;49.716;9.266;2023-02-25T01:49:26;99147.78;;;6.01;80.13
17060;BME280;8646;49.716;9.266;2023-02-25T01:52:32;99137.16;;;5.99;79.76
17060;BME280;8646;49.716;9.266;2023-02-25T01:55:35;99142.31;;;6.04;79.43
17060;BME280;8646;49.716;9.266;2023-02-25T01:58:40;99128.06;;;6.02;78.92
17060;BME280;8646;49.716;9.266;2023-02-25T02:01:43;99128.75;;;6.07;78.19
17060;BME280;8646;49.716;9.266;2023-02-25T02:04:50;99115.03;;;5.93;78.85
17060;BME280;8646;49.716;9.266;2023-02-25T02:07:54;99131.03;;;5.96;79.14
17060;BME280;8646;49.716;9.266;2023-02-25T02:10:57;99133.59;;;5.99;79.21
17060;BME280;8646;49.716;9.266;2023-02-25T02:14:02;99123.91;;;5.95;79.36
17060;BME280;8646;49.716;9.266;2023-02-25T02:17:17;99132.78;;;5.97;79.04
17060;BME280;8646;49.716;9.266;2023-02-25T02:20:25;99131.84;;;5.98;78.63
17060;BME280;8646;49.716;9.266;2023-02-25T02:27:24;99127.66;;;5.91;78.48
17060;BME280;8646;49.716;9.266;2023-02-25T02:30:47;99139.41;;;5.88;78.34
17060;BME280;8646;49.716;9.266;2023-02-25T02:34:10;99129.31;;;5.93;77.99
17060;BME280;8646;49.716;9.266;2023-02-25T02:37:25;99132.81;;;5.95;78.00
17060;BME280;8646;49.716;9.266;2023-02-25T02:40:40;99135.72;;;5.91;78.25
17060;BME280;8646;49.716;9.266;2023-02-25T02:43:52;99127.88;;;5.85;78.08
17060;BME280;8646;49.716;9.266;2023-02-25T02:47:00;99134.22;;;5.84;78.44
17060;BME280;8646;49.716;9.266;2023-02-25T02:50:09;99130.56;;;5.85;78.05
17060;BME280;8646;49.716;9.266;2023-02-25T02:53:15;99143.19;;;5.83;78.15
17060;BME280;8646;49.716;9.266;2023-02-25T02:56:21;99137.69;;;5.86;77.84
17060;BME280;8646;49.716;9.266;2023-02-25T02:59:28;99134.25;;;5.82;77.89
17060;BME280;8646;49.716;9.266;2023-02-25T03:02:34;99143.78;;;5.91;77.64
17060;BME280;8646;49.716;9.266;2023-02-25T03:05:42;99143.00;;;5.87;77.66
17060;BME280;8646;49.716;9.266;2023-02-25T03:08:50;99128.13;;;5.79;77.36
17060;BME280;8646;49.716;9.266;2023-02-25T03:11:56;99132.00;;;5.93;77.64
17060;BME280;8646;49.716;9.266;2023-02-25T03:14:59;99161.50;;;5.95;77.17
17060;BME280;8646;49.716;9.266;2023-02-25T03:18:04;99155.13;;;5.97;76.91
17060;BME280;8646;49.716;9.266;2023-02-25T03:21:14;99152.50;;;5.96;76.00
17060;BME280;8646;49.716;9.266;2023-02-25T03:24:21;99156.28;;;5.92;75.90
17060;BME280;8646;49.716;9.266;2023-02-25T03:27:32;99149.34;;;5.85;75.81
17060;BME280;8646;49.716;9.266;2023-02-25T03:30:39;99145.88;;;6.04;73.74
17060;BME280;8646;49.716;9.266;2023-02-25T03:33:51;99162.91;;;5.82;74.80
17060;BME280;8646;49.716;9.266;2023-02-25T03:36:59;99161.84;;;5.86;74.55
17060;BME280;8646;49.716;9.266;2023-02-25T03:40:07;99157.72;;;5.77;75.02
17060;BME280;8646;49.716;9.266;2023-02-25T03:43:15;99153.81;;;5.64;75.48
17060;BME280;8646;49.716;9.266;2023-02-25T03:46:20;99167.03;;;5.68;75.94
17060;BME280;8646;49.716;9.266;2023-02-25T03:49:26;99168.06;;;5.66;76.04
17060;BME280;8646;49.716;9.266;2023-02-25T03:52:35;99155.72;;;5.60;76.30
17060;BME280;8646;49.716;9.266;2023-02-25T03:55:40;99152.50;;;5.52;76.19
17060;BME280;8646;49.716;9.266;2023-02-25T03:58:43;99168.09;;;5.64;76.33
17060;BME280;8646;49.716;9.266;2023-02-25T04:01:47;99161.66;;;5.68;76.35
17060;BME280;8646;49.716;9.266;2023-02-25T04:04:51;99175.22;;;5.65;76.41
17060;BME280;8646;49.716;9.266;2023-02-25T04:07:57;99183.34;;;5.64;76.60
17060;BME280;8646;49.716;9.266;2023-02-25T04:11:00;99189.56;;;5.64;76.61
17060;BME280;8646;49.716;9.266;2023-02-25T04:14:05;99195.06;;;5.61;77.11
17060;BME280;8646;49.716;9.266;2023-02-25T04:17:08;99195.88;;;5.63;77.02
17060;BME280;8646;49.716;9.266;2023-02-25T04:20:15;99193.31;;;5.60;77.21
17060;BME280;8646;49.716;9.266;2023-02-25T04:23:19;99199.56;;;5.61;77.39
17060;BME280;8646;49.716;9.266;2023-02-25T04:26:22;99200.19;;;5.67;76.77
17060;BME280;8646;49.716;9.266;2023-02-25T04:29:26;99208.25;;;5.67;76.58
17060;BME280;8646;49.716;9.266;2023-02-25T04:32:29;99203.63;;;5.71;76.51
17060;BME280;8646;49.716;9.266;2023-02-25T04:35:32;99210.84;;;5.69;76.65
17060;BME280;8646;49.716;9.266;2023-02-25T04:38:36;99208.16;;;5.69;76.48
17060;BME280;8646;49.716;9.266;2023-02-25T04:41:38;99214.34;;;5.71;76.31
17060;BME280;8646;49.716;9.266;2023-02-25T04:44:42;99205.31;;;5.73;76.09
17060;BME280;8646;49.716;9.266;2023-02-25T04:47:44;99202.94;;;5.66;75.96
17060;BME280;8646;49.716;9.266;2023-02-25T04:50:47;99198.44;;;5.66;76.36
17060;BME280;8646;49.716;9.266;2023-02-25T04:53:55;99210.94;;;5.67;75.93
17060;BME280;8646;49.716;9.266;2023-02-25T04:56:58;99201.25;;;5.63;76.16
17060;BME280;8646;49.716;9.266;2023-02-25T05:00:00;99195.81;;;5.65;75.86
17060;BME280;8646;49.716;9.266;2023-02-25T05:03:11;99193.09;;;5.66;75.43
17060;BME280;8646;49.716;9.266;2023-02-25T05:06:14;99192.38;;;5.61;75.40
17060;BME280;8646;49.716;9.266;2023-02-25T05:09:18;99196.81;;;5.62;75.25
17060;BME280;8646;49.716;9.266;2023-02-25T05:12:22;99204.19;;;5.57;75.63
17060;BME280;8646;49.716;9.266;2023-02-25T05:15:25;99194.13;;;5.62;75.48
17060;BME280;8646;49.716;9.266;2023-02-25T05:18:27;99197.94;;;5.57;75.44
17060;BME280;8646;49.716;9.266;2023-02-25T05:21:38;99202.19;;;5.62;75.06
17060;BME280;8646;49.716;9.266;2023-02-25T05:24:42;99198.00;;;5.55;75.25
17060;BME280;8646;49.716;9.266;2023-02-25T05:27:45;99203.09;;;5.61;74.96
17060;BME280;8646;49.716;9.266;2023-02-25T05:30:48;99208.47;;;5.61;74.77
17060;BME280;8646;49.716;9.266;2023-02-25T05:33:52;99212.19;;;5.59;74.68
17060;BME280;8646;49.716;9.266;2023-02-25T05:36:55;99203.25;;;5.58;74.87
17060;BME280;8646;49.716;9.266;2023-02-25T05:39:59;99209.28;;;5.63;74.46
17060;BME280;8646;49.716;9.266;2023-02-25T05:43:02;99214.97;;;5.56;74.68
17060;BME280;8646;49.716;9.266;2023-02-25T05:46:05;99214.78;;;5.60;74.72
17060;BME280;8646;49.716;9.266;2023-02-25T05:49:12;99217.41;;;5.62;74.60
17060;BME280;8646;49.716;9.266;2023-02-25T05:52:15;99213.78;;;5.63;74.36
17060;BME280;8646;49.716;9.266;2023-02-25T05:55:19;99221.59;;;5.69;73.99
17060;BME280;8646;49.716;9.266;2023-02-25T05:58:24;99224.22;;;5.70;73.99
17060;BME280;8646;49.716;9.266;2023-02-25T06:01:27;99208.00;;;5.73;73.71
17060;BME280;8646;49.716;9.266;2023-02-25T06:04:32;99214.91;;;5.79;73.05
17060;BME280;8646;49.716;9.266;2023-02-25T06:07:34;99217.81;;;5.74;73.21
17060;BME280;8646;49.716;9.266;2023-02-25T06:10:39;99219.66;;;5.72;73.49
17060;BME280;8646;49.716;9.266;2023-02-25T06:13:42;99217.03;;;5.71;73.44
17060;BME280;8646;49.716;9.266;2023-02-25T06:16:45;99223.28;;;5.71;73.81
17060;BME280;8646;49.716;9.266;2023-02-25T06:19:48;99229.47;;;5.73;73.74
17060;BME280;8646;49.716;9.266;2023-02-25T06:22:51;99221.28;;;5.76;73.40
17060;BME280;8646;49.716;9.266;2023-02-25T06:25:58;99225.16;;;5.69;73.32
17060;BME280;8646;49.716;9.266;2023-02-25T06:29:00;99229.59;;;5.70;73.99
17060;BME280;8646;49.716;9.266;2023-02-25T06:32:03;99233.75;;;5.78;73.71
17060;BME280;8646;49.716;9.266;2023-02-25T06:35:07;99246.25;;;5.79;73.61
17060;BME280;8646;49.716;9.266;2023-02-25T06:38:10;99257.13;;;5.75;74.19
17060;BME280;8646;49.716;9.266;2023-02-25T06:41:16;99268.66;;;5.78;73.97
17060;BME280;8646;49.716;9.266;2023-02-25T06:44:19;99262.38;;;5.79;73.84
17060;BME280;8646;49.716;9.266;2023-02-25T06:47:21;99269.50;;;5.80;74.15
17060;BME280;8646;49.716;9.266;2023-02-25T06:50:24;99268.50;;;5.82;74.13
17060;BME280;8646;49.716;9.266;2023-02-25T06:53:27;99259.28;;;5.89;73.90
17060;BME280;8646;49.716;9.266;2023-02-25T06:56:31;99260.91;;;5.93;74.01
17060;BME280;8646;49.716;9.266;2023-02-25T06:59:34;99261.66;;;5.97;73.84
17060;BME280;8646;49.716;9.266;2023-02-25T07:02:37;99265.03;;;6.02;73.48
17060;BME280;8646;49.716;9.266;2023-02-25T07:05:40;99267.72;;;6.02;73.77
17060;BME280;8646;49.716;9.266;2023-02-25T07:08:43;99242.09;;;5.93;73.53
17060;BME280;8646;49.716;9.266;2023-02-25T07:11:47;99271.00;;;6.08;73.66
17060;BME280;8646;49.716;9.266;2023-02-25T07:14:49;99267.28;;;6.12;73.45
17060;BME280;8646;49.716;9.266;2023-02-25T07:17:52;99275.13;;;6.17;73.20
17060;BME280;8646;49.716;9.266;2023-02-25T07:20:56;99263.34;;;6.21;73.17
17060;BME280;8646;49.716;9.266;2023-02-25T07:23:59;99272.88;;;6.28;72.79
17060;BME280;8646;49.716;9.266;2023-02-25T07:27:03;99272.06;;;6.26;72.92
17060;BME280;8646;49.716;9.266;2023-02-25T07:30:07;99280.69;;;6.34;72.95
17060;BME280;8646;49.716;9.266;2023-02-25T07:33:14;99280.56;;;6.37;72.49
17060;BME280;8646;49.716;9.266;2023-02-25T07:36:17;99281.38;;;6.39;72.49
17060;BME280;8646;49.716;9.266;2023-02-25T07:39:19;99285.56;;;6.46;71.81
17060;BME280;8646;49.716;9.266;2023-02-25T07:42:24;99288.50;;;6.40;72.33
17060;BME280;8646;49.716;9.266;2023-02-25T07:45:26;99282.97;;;6.43;72.28
17060;BME280;8646;49.716;9.266;2023-02-25T07:48:29;99295.88;;;6.35;72.24
17060;BME280;8646;49.716;9.266;2023-02-25T07:51:32;99294.94;;;6.36;72.21
17060;BME280;8646;49.716;9.266;2023-02-25T07:54:35;99306.44;;;6.40;72.03
17060;BME280;8646;49.716;9.266;2023-02-25T07:57:39;99301.25;;;6.35;71.70
17060;BME280;8646;49.716;9.266;2023-02-25T08:00:42;99302.13;;;6.36;72.14
17060;BME280;8646;49.716;9.266;2023-02-25T08:03:46;99303.81;;;6.38;71.98
17060;BME280;8646;49.716;9.266;2023-02-25T08:06:49;99298.38;;;6.40;71.86
17060;BME280;8646;49.716;9.266;2023-02-25T08:09:53;99297.50;;;6.39;71.69
17060;BME280;8646;49.716;9.266;2023-02-25T08:12:57;99292.91;;;6.41;71.41
17060;BME280;8646;49.716;9.266;2023-02-25T08:16:03;99299.09;;;6.43;71.86
17060;BME280;8646;49.716;9.266;2023-02-25T08:19:06;99306.91;;;6.49;71.84
17060;BME280;8646;49.716;9.266;2023-02-25T08:22:09;99299.75;;;6.70;70.67
17060;BME280;8646;49.716;9.266;2023-02-25T08:25:12;99293.03;;;6.60;70.56
17060;BME280;8646;49.716;9.266;2023-02-25T08:28:16;99305.72;;;6.57;70.51
17060;BME280;8646;49.716;9.266;2023-02-25T08:31:19;99293.34;;;6.53;71.06
17060;BME280;8646;49.716;9.266;2023-02-25T08:34:23;99289.78;;;6.52;71.16
17060;BME280;8646;49.716;9.266;2023-02-25T08:37:26;99289.72;;;6.54;71.45
17060;BME280;8646;49.716;9.266;2023-02-25T08:40:29;99290.44;;;6.57;71.14
17060;BME280;8646;49.716;9.266;2023-02-25T08:43:33;99307.22;;;6.64;71.31
17060;BME280;8646;49.716;9.266;2023-02-25T08:46:36;99293.84;;;6.62;70.93
17060;BME280;8646;49.716;9.266;2023-02-25T08:49:39;99308.22;;;6.61;70.50
17060;BME280;8646;49.716;9.266;2023-02-25T08:52:42;99305.41;;;6.64;70.25
17060;BME280;8646;49.716;9.266;2023-02-25T08:55:44;99304.25;;;6.70;70.37
17060;BME280;8646;49.716;9.266;2023-02-25T08:58:49;99300.69;;;6.69;70.81
17060;BME280;8646;49.716;9.266;2023-02-25T09:01:52;99306.47;;;7.01;68.86
17060;BME280;8646;49.716;9.266;2023-02-25T09:04:55;99304.47;;;6.85;68.96
17060;BME280;8646;49.716;9.266;2023-02-25T09:07:58;99304.03;;;6.74;69.83
17060;BME280;8646;49.716;9.266;2023-02-25T09:11:04;99311.34;;;6.72;69.98
17060;BME280;8646;49.716;9.266;2023-02-25T09:14:08;99310.31;;;6.75;69.54
17060;BME280;8646;49.716;9.266;2023-02-25T09:17:11;99304.88;;;6.76;69.86
17060;BME280;8646;49.716;9.266;2023-02-25T09:20:14;99304.94;;;6.75;69.42
17060;BME280;8646;49.716;9.266;2023-02-25T09:23:18;99304.03;;;6.74;70.11
17060;BME280;8646;49.716;9.266;2023-02-25T09:26:21;99302.78;;;6.83;69.75
17060;BME280;8646;49.716;9.266;2023-02-25T09:29:25;99307.75;;;6.92;67.99
17060;BME280;8646;49.716;9.266;2023-02-25T09:32:28;99301.19;;;6.79;69.79
17060;BME280;8646;49.716;9.266;2023-02-25T09:35:31;99309.84;;;6.85;69.80
17060;BME280;8646;49.716;9.266;2023-02-25T09:38:34;99318.44;;;6.94;69.91
17060;BME280;8646;49.716;9.266;2023-02-25T09:41:42;99313.16;;;7.12;68.34
17060;BME280;8646;49.716;9.266;2023-02-25T09:44:50;99316.75;;;6.91;69.05
17060;BME280;8646;49.716;9.266;2023-02-25T09:47:57;99318.50;;;6.92;69.20
17060;BME280;8646;49.716;9.266;2023-02-25T09:51:03;99310.44;;;6.92;69.78
17060;BME280;8646;49.716;9.266;2023-02-25T09:54:15;99322.16;;;6.91;69.66
17060;BME280;8646;49.716;9.266;2023-02-25T09:57:20;99314.56;;;7.21;67.87
17060;BME280;8646;49.716;9.266;2023-02-25T10:00:25;99317.44;;;7.16;68.46
17060;BME280;8646;49.716;9.266;2023-02-25T10:03:39;99314.72;;;7.37;68.18
17060;BME280;8646;49.716;9.266;2023-02-25T10:06:47;99308.13;;;7.44;68.28
17060;BME280;8646;49.716;9.266;2023-02-25T10:09:55;99295.19;;;7.52;68.12
17060;BME280;8646;49.716;9.266;2023-02-25T10:13:09;99296.03;;;7.71;68.29
17060;BME280;8646;49.716;9.266;2023-02-25T10:16:31;99283.22;;;7.95;66.88
17060;BME280;8646;49.716;9.266;2023-02-25T10:19:47;99280.59;;;8.12;66.63
17060;BME280;8646;49.716;9.266;2023-02-25T10:22:54;99281.00;;;8.22;64.30
17060;BME280;8646;49.716;9.266;2023-02-25T10:26:05;99273.59;;;8.27;64.40
17060;BME280;8646;49.716;9.266;2023-02-25T10:29:25;99274.03;;;8.54;61.40
17060;BME280;8646;49.716;9.266;2023-02-25T10:32:33;99272.75;;;8.43;64.04
17060;BME280;8646;49.716;9.266;2023-02-25T10:35:38;99277.47;;;8.57;63.78
17060;BME280;8646;49.716;9.266;2023-02-25T10:38:43;99279.09;;;8.60;60.92
17060;BME280;8646;49.716;9.266;2023-02-25T10:41:46;99288.03;;;8.07;66.94
17060;BME280;8646;49.716;9.266;2023-02-25T10:44:50;99304.38;;;7.27;70.94
17060;BME280;8646;49.716;9.266;2023-02-25T10:48:02;99322.41;;;6.85;73.63
17060;BME280;8646;49.716;9.266;2023-02-25T10:51:09;99316.66;;;6.52;74.43
17060;BME280;8646;49.716;9.266;2023-02-25T10:54:13;99323.84;;;6.51;75.68
17060;BME280;8646;49.716;9.266;2023-02-25T10:57:17;99319.41;;;6.50;76.00
17060;BME280;8646;49.716;9.266;2023-02-25T11:00:26;99315.22;;;6.43;76.91
17060;BME280;8646;49.716;9.266;2023-02-25T11:03:42;99306.88;;;6.07;77.28
17060;BME280;8646;49.716;9.266;2023-02-25T11:06:51;99314.38;;;6.21;77.18
17060;BME280;8646;49.716;9.266;2023-02-25T11:10:06;99304.25;;;6.06;76.96
17060;BME280;8646;49.716;9.266;2023-02-25T11:13:29;99304.44;;;6.01;77.26
17060;BME280;8646;49.716;9.266;2023-02-25T11:16:34;99293.88;;;6.40;76.56
17060;BME280;8646;49.716;9.266;2023-02-25T11:19:40;99284.63;;;6.68;76.11
17060;BME280;8646;49.716;9.266;2023-02-25T11:22:44;99276.16;;;6.97;75.68
17060;BME280;8646;49.716;9.266;2023-02-25T11:25:48;99280.19;;;7.07;75.78
17060;BME280;8646;49.716;9.266;2023-02-25T11:28:53;99273.03;;;7.06;74.81
17060;BME280;8646;49.716;9.266;2023-02-25T11:32:00;99270.00;;;7.14;74.43
17060;BME280;8646;49.716;9.266;2023-02-25T11:35:16;99258.41;;;7.32;73.68
17060;BME280;8646;49.716;9.266;2023-02-25T11:38:24;99248.03;;;7.62;71.89
17060;BME280;8646;49.716;9.266;2023-02-25T11:41:29;99221.88;;;7.64;72.14
17060;BME280;8646;49.716;9.266;2023-02-25T11:44:41;99236.41;;;7.97;72.26
17060;BME280;8646;49.716;9.266;2023-02-25T11:47:44;99227.31;;;8.36;67.58
17060;BME280;8646;49.716;9.266;2023-02-25T11:50:56;99232.25;;;8.45;66.73
17060;BME280;8646;49.716;9.266;2023-02-25T11:54:12;99214.16;;;8.64;60.73
17060;BME280;8646;49.716;9.266;2023-02-25T11:57:31;99216.38;;;8.56;62.70
17060;BME280;8646;49.716;9.266;2023-02-25T12:00:45;99202.09;;;8.54;57.22
17060;BME280;8646;49.716;9.266;2023-02-25T12:04:14;99205.22;;;8.28;58.00
17060;BME280;8646;49.716;9.266;2023-02-25T12:07:44;99215.28;;;8.07;58.90
17060;BME280;8646;49.716;9.266;2023-02-25T12:11:31;99213.34;;;7.92;59.01
17060;BME280;8646;49.716;9.266;2023-02-25T12:15:00;99209.94;;;7.88;58.72
17060;BME280;8646;49.716;9.266;2023-02-25T12:25:35;99213.53;;;8.06;59.07
17060;BME280;8646;49.716;9.266;2023-02-25T12:28:53;99210.88;;;8.23;58.58
17060;BME280;8646;49.716;9.266;2023-02-25T12:32:19;99213.22;;;8.31;58.24
17060;BME280;8646;49.716;9.266;2023-02-25T12:35:54;99205.06;;;8.50;56.74
17060;BME280;8646;49.716;9.266;2023-02-25T12:39:20;99211.47;;;8.64;57.25
17060;BME280;8646;49.716;9.266;2023-02-25T12:42:41;99206.88;;;8.66;57.55
17060;BME280;8646;49.716;9.266;2023-02-25T12:45:55;99219.41;;;8.50;56.47
17060;BME280;8646;49.716;9.266;2023-02-25T12:49:21;99249.38;;;7.71;63.95
17060;BME280;8646;49.716;9.266;2023-02-25T12:52:49;99299.78;;;5.83;79.83
17060;BME280;8646;49.716;9.266;2023-02-25T12:56:05;99310.59;;;5.35;85.80
17060;BME280;8646;49.716;9.266;2023-02-25T12:59:27;99325.28;;;5.25;89.21
17060;BME280;8646;49.716;9.266;2023-02-25T13:02:49;99340.28;;;5.06;91.56
17060;BME280;8646;49.716;9.266;2023-02-25T13:06:00;99335.03;;;5.03;93.31
17060;BME280;8646;49.716;9.266;2023-02-25T13:09:20;99342.97;;;5.06;94.37
17060;BME280;8646;49.716;9.266;2023-02-25T13:12:45;99353.59;;;5.09;92.75
17060;BME280;8646;49.716;9.266;2023-02-25T13:15:59;99314.66;;;4.72;94.15
17060;BME280;8646;49.716;9.266;2023-02-25T13:19:31;99360.19;;;4.98;94.05
17060;BME280;8646;49.716;9.266;2023-02-25T13:22:47;99362.00;;;5.23;92.71
17060;BME280;8646;49.716;9.266;2023-02-25T13:26:12;99358.22;;;5.04;93.05
17060;BME280;8646;49.716;9.266;2023-02-25T13:29:38;99361.19;;;5.21;92.48
17060;BME280;8646;49.716;9.266;2023-02-25T13:32:54;99364.69;;;5.23;92.29
17060;BME280;8646;49.716;9.266;2023-02-25T13:36:10;99353.63;;;5.32;92.54
17060;BME280;8646;49.716;9.266;2023-02-25T13:39:30;99353.53;;;5.82;90.31
17060;BME280;8646;49.716;9.266;2023-02-25T13:42:59;99354.16;;;5.90;88.30
17060;BME280;8646;49.716;9.266;2023-02-25T13:46:15;99363.16;;;5.64;89.20
17060;BME280;8646;49.716;9.266;2023-02-25T13:53:06;99349.84;;;5.84;88.69
17060;BME280;8646;49.716;9.266;2023-02-25T13:56:35;99335.78;;;5.78;88.77
17060;BME280;8646;49.716;9.266;2023-02-25T13:59:54;99331.72;;;5.67;85.64
17060;BME280;8646;49.716;9.266;2023-02-25T14:03:38;99346.75;;;5.48;86.18
17060;BME280;8646;49.716;9.266;2023-02-25T14:07:04;99336.13;;;5.68;86.60
17060;BME280;8646;49.716;9.266;2023-02-25T14:10:24;99332.72;;;5.88;86.52
17060;BME280;8646;49.716;9.266;2023-02-25T14:13:56;99327.59;;;6.26;85.95
17060;BME280;8646;49.716;9.266;2023-02-25T14:17:20;99327.78;;;6.65;84.98
17060;BME280;8646;49.716;9.266;2023-02-25T14:20:39;99324.88;;;6.89;84.96
17060;BME280;8646;49.716;9.266;2023-02-25T14:23:53;99322.34;;;7.27;83.89
17060;BME280;8646;49.716;9.266;2023-02-25T14:27:13;99317.16;;;7.22;82.91
17060;BME280;8646;49.716;9.266;2023-02-25T14:30:25;99320.03;;;7.38;80.54
17060;BME280;8646;49.716;9.266;2023-02-25T14:33:45;99301.63;;;7.48;77.90
17060;BME280;8646;49.716;9.266;2023-02-25T14:37:03;99326.59;;;6.92;78.16
17060;BME280;8646;49.716;9.266;2023-02-25T14:40:24;99344.75;;;6.23;81.74
17060;BME280;8646;49.716;9.266;2023-02-25T14:43:30;99363.69;;;5.73;85.37
17060;BME280;8646;49.716;9.266;2023-02-25T14:46:37;99371.22;;;5.16;83.65
17060;BME280;8646;49.716;9.266;2023-02-25T14:49:52;99402.03;;;4.23;87.74
17060;BME280;8646;49.716;9.266;2023-02-25T14:53:29;99415.13;;;3.44;92.89
17060;BME280;8646;49.716;9.266;2023-02-25T14:56:55;99450.69;;;3.16;95.62
17060;BME280;8646;49.716;9.266;2023-02-25T15:00:34;99445.78;;;2.99;98.83
17060;BME280;8646;49.716;9.266;2023-02-25T15:04:16;99450.16;;;3.01;99.25
17060;BME280;8646;49.716;9.266;2023-02-25T15:07:28;99443.00;;;3.02;100.00
17060;BME280;8646;49.716;9.266;2023-02-25T15:10:46;99445.66;;;3.03;100.00
17060;BME280;8646;49.716;9.266;2023-02-25T15:14:14;99434.00;;;3.06;100.00
17060;BME280;8646;49.716;9.266;2023-02-25T15:18:01;99437.72;;;3.33;100.00
17060;BME280;8646;49.716;9.266;2023-02-25T15:21:36;99440.59;;;3.58;100.00
17060;BME280;8646;49.716;9.266;2023-02-25T15:24:40;99443.19;;;3.61;100.00
17060;BME280;8646;49.716;9.266;2023-02-25T15:27:48;99440.38;;;3.65;100.00
17060;BME280;8646;49.716;9.266;2023-02-25T15:31:10;99449.66;;;3.83;100.00
17060;BME280;8646;49.716;9.266;2023-02-25T15:34:33;99444.97;;;3.91;100.00
17060;BME280;8646;49.716;9.266;2023-02-25T15:38:03;99446.88;;;3.88;100.00
17060;BME280;8646;49.716;9.266;2023-02-25T15:41:37;99443.78;;;4.01;100.00
17060;BME280;8646;49.716;9.266;2023-02-25T15:44:41;99451.53;;;4.10;100.00
17060;BME280;8646;49.716;9.266;2023-02-25T15:47:47;99459.81;;;4.03;100.00
17060;BME280;8646;49.716;9.266;2023-02-25T15:50:51;99465.94;;;4.06;100.00
17060;BME280;8646;49.716;9.266;2023-02-25T15:53:55;99473.84;;;4.11;100.00
17060;BME280;8646;49.716;9.266;2023-02-25T15:56:59;99468.47;;;4.11;100.00
17060;BME280;8646;49.716;9.266;2023-02-25T16:00:48;99481.63;;;4.18;100.00
17060;BME280;8646;49.716;9.266;2023-02-25T16:03:53;99485.19;;;4.19;100.00
17060;BME280;8646;49.716;9.266;2023-02-25T16:06:56;99497.47;;;4.26;100.00
17060;BME280;8646;49.716;9.266;2023-02-25T16:10:04;99496.59;;;4.26;100.00
17060;BME280;8646;49.716;9.266;2023-02-25T16:13:13;99493.28;;;4.17;100.00
17060;BME280;8646;49.716;9.266;2023-02-25T16:16:17;99511.78;;;4.25;100.00
17060;BME280;8646;49.716;9.266;2023-02-25T16:19:25;99519.78;;;4.27;100.00
17060;BME280;8646;49.716;9.266;2023-02-25T16:22:31;99518.03;;;4.26;100.00
17060;BME280;8646;49.716;9.266;2023-02-25T16:25:39;99521.56;;;4.26;100.00
17060;BME280;8646;49.716;9.266;2023-02-25T16:28:51;99520.94;;;4.18;100.00
17060;BME280;8646;49.716;9.266;2023-02-25T16:32:00;99531.91;;;4.09;100.00
17060;BME280;8646;49.716;9.266;2023-02-25T16:35:10;99539.06;;;4.08;100.00
17060;BME280;8646;49.716;9.266;2023-02-25T16:38:21;99548.91;;;4.06;100.00
17060;BME280;8646;49.716;9.266;2023-02-25T16:41:29;99540.50;;;4.20;100.00
17060;BME280;8646;49.716;9.266;2023-02-25T16:44:40;99543.56;;;4.06;100.00
17060;BME280;8646;49.716;9.266;2023-02-25T16:47:52;99548.16;;;4.03;100.00
17060;BME280;8646;49.716;9.266;2023-02-25T16:51:07;99549.06;;;4.02;100.00
17060;BME280;8646;49.716;9.266;2023-02-25T16:54:14;99558.81;;;4.04;100.00
17060;BME280;8646;49.716;9.266;2023-02-25T16:57:19;99557.38;;;3.91;100.00
17060;BME280;8646;49.716;9.266;2023-02-25T17:00:23;99560.16;;;3.88;100.00
17060;BME280;8646;49.716;9.266;2023-02-25T17:03:27;99560.75;;;3.67;100.00
17060;BME280;8646;49.716;9.266;2023-02-25T17:06:38;99576.78;;;3.67;100.00
17060;BME280;8646;49.716;9.266;2023-02-25T17:09:43;99585.16;;;3.55;100.00
17060;BME280;8646;49.716;9.266;2023-02-25T17:12:47;99588.06;;;3.45;100.00
17060;BME280;8646;49.716;9.266;2023-02-25T17:15:50;99596.38;;;3.33;100.00
17060;BME280;8646;49.716;9.266;2023-02-25T17:18:56;99607.47;;;3.18;100.00
17060;BME280;8646;49.716;9.266;2023-02-25T17:22:01;99605.84;;;3.11;100.00